Time;durP1;ratioP1;P1;durP2;ratioP2;P2;SDS_P1;SDS_P2;PMS_P1;PMS_P2;Temp;Humidity;BMP_temperature;BMP_pressure;BME280_temperature;BME280_humidity;BME280_pressure;Samples;Min_cycle;Max_cycle;Signal;HPM_P1;HPM_P2
2022/06/21 00:00:18;;;;;;;;;;;;;;;22.94;51.78;100840.00;5056891;28;4152;-70
2022/06/21 00:02:44;;;;;;;;;;;;;;;22.93;51.41;100838.53;5049892;28;3974;-69
2022/06/21 00:05:12;;;;;;;;;;;;;;;22.93;51.29;100844.31;5048006;28;4103;-70
2022/06/21 00:07:38;;;;;;;;;;;;;;;22.92;51.44;100831.28;5050795;28;4082;-69
2022/06/21 00:10:05;;;;;;;;;;;;;;;22.94;51.62;100836.41;5055603;28;4206;-70
2022/06/21 00:12:32;;;;;;;;;;;;;;;22.92;51.44;100828.38;5054073;28;4159;-70
2022/06/21 00:14:58;;;;;;;;;;;;;;;22.92;51.60;100828.38;5055032;28;4136;-69
2022/06/21 00:17:25;;;;;;;;;;;;;;;22.91;51.84;100829.06;5050864;28;4171;-70
2022/06/21 00:19:51;;;;;;;;;;;;;;;22.92;51.60;100831.28;5053101;28;4139;-70
2022/06/21 00:22:18;;;;;;;;;;;;;;;22.91;51.53;100838.47;5055126;28;4206;-70
2022/06/21 00:24:45;;;;;;;;;;;;;;;22.90;51.36;100848.53;5051644;28;4046;-70
2022/06/21 00:27:12;;;;;;;;;;;;;;;22.91;51.51;100846.41;5047990;28;4145;-70
2022/06/21 00:29:38;;;;;;;;;;;;;;;22.89;50.89;100838.41;5051378;28;4207;-70
2022/06/21 00:32:05;;;;;;;;;;;;;;;22.90;51.29;100833.34;5045706;28;4211;-69
2022/06/21 00:34:31;;;;;;;;;;;;;;;22.90;51.15;100834.09;5055159;28;4048;-69
2022/06/21 00:36:59;;;;;;;;;;;;;;;22.89;51.46;100838.41;5051250;28;4338;-70
2022/06/21 00:39:25;;;;;;;;;;;;;;;22.88;51.40;100845.56;5035460;28;4097;-69
2022/06/21 00:41:52;;;;;;;;;;;;;;;22.88;51.59;100836.91;5050470;28;4263;-70
2022/06/21 00:44:20;;;;;;;;;;;;;;;22.91;51.57;100840.63;5047205;28;4301;-69
2022/06/21 00:46:48;;;;;;;;;;;;;;;22.90;51.06;100839.88;5040666;28;4157;-69
2022/06/21 00:49:19;;;;;;;;;;;;;;;22.89;51.25;100835.50;5049701;28;4172;-70
2022/06/21 00:51:45;;;;;;;;;;;;;;;22.89;51.20;100844.16;5051282;28;4250;-70
2022/06/21 00:54:16;;;;;;;;;;;;;;;22.87;51.12;100835.44;5055190;28;4132;-70
2022/06/21 00:56:47;;;;;;;;;;;;;;;22.88;51.02;100842.69;5053677;28;4002;-70
2022/06/21 00:59:23;;;;;;;;;;;;;;;22.87;51.16;100841.22;5050978;28;4522;-69
2022/06/21 01:01:50;;;;;;;;;;;;;;;22.88;50.92;100836.16;5046373;28;4346;-70
2022/06/21 01:04:20;;;;;;;;;;;;;;;22.87;50.71;100838.31;5049023;28;4519;-70
2022/06/21 01:06:47;;;;;;;;;;;;;;;22.88;50.73;100830.41;5051186;28;4178;-70
2022/06/21 01:09:18;;;;;;;;;;;;;;;22.87;51.17;100834.69;5049914;28;4284;-70
2022/06/21 01:11:46;;;;;;;;;;;;;;;22.87;50.91;100841.22;5051836;28;4220;-70
2022/06/21 01:14:12;;;;;;;;;;;;;;;22.86;50.70;100833.22;5050759;28;4383;-69
2022/06/21 01:16:38;;;;;;;;;;;;;;;22.86;50.89;100836.09;5049884;28;4521;-70
2022/06/21 01:19:13;;;;;;;;;;;;;;;22.86;51.05;100836.84;5036165;28;5257;-70
2022/06/21 01:21:40;;;;;;;;;;;;;;;22.85;50.61;100849.06;5055009;28;4212;-70
2022/06/21 01:24:09;;;;;;;;;;;;;;;22.87;50.34;100840.47;5050410;28;4214;-70
2022/06/21 01:26:37;;;;;;;;;;;;;;;22.85;50.63;100844.03;5050544;28;4219;-70
2022/06/21 01:29:03;;;;;;;;;;;;;;;22.84;50.76;100842.56;5046505;28;4144;-69
2022/06/21 01:31:33;;;;;;;;;;;;;;;22.84;50.69;100845.44;5015320;28;4209;-70
2022/06/21 01:33:59;;;;;;;;;;;;;;;22.84;50.82;100847.56;5048972;28;4177;-70
2022/06/21 01:36:30;;;;;;;;;;;;;;;22.83;50.90;100851.88;5053671;28;5284;-69
2022/06/21 01:38:57;;;;;;;;;;;;;;;22.82;51.06;100842.47;5057560;28;4034;-69
2022/06/21 01:41:25;;;;;;;;;;;;;;;22.82;50.69;100851.13;5049787;28;4145;-69
2022/06/21 01:43:52;;;;;;;;;;;;;;;22.81;50.64;100849.66;5053565;28;4280;-69
2022/06/21 01:46:19;;;;;;;;;;;;;;;22.81;50.69;100861.19;5053964;28;5292;-70
2022/06/21 01:48:46;;;;;;;;;;;;;;;22.79;50.73;100856.09;5059516;28;4198;-69
2022/06/21 01:51:17;;;;;;;;;;;;;;;22.79;50.48;100849.56;5054139;28;4204;-69
2022/06/21 01:53:43;;;;;;;;;;;;;;;22.79;50.46;100849.56;5057878;28;4066;-70
2022/06/21 01:56:11;;;;;;;;;;;;;;;22.78;50.30;100854.59;5053776;28;4167;-71
2022/06/21 01:58:41;;;;;;;;;;;;;;;22.79;50.54;100850.31;5052078;28;3955;-69
2022/06/21 02:01:12;;;;;;;;;;;;;;;22.79;50.65;100852.47;5052776;28;4143;-70
2022/06/21 02:03:39;;;;;;;;;;;;;;;22.78;50.81;100862.53;5056115;28;4197;-70
2022/06/21 02:06:07;;;;;;;;;;;;;;;22.78;50.47;100848.84;5056586;28;4078;-70
2022/06/21 02:08:35;;;;;;;;;;;;;;;22.77;50.65;100855.28;5054160;28;4247;-69
2022/06/21 02:11:01;;;;;;;;;;;;;;;22.77;50.67;100861.06;5049854;28;3968;-70
2022/06/21 02:13:32;;;;;;;;;;;;;;;22.77;50.76;100864.69;5057823;28;5328;-70
2022/06/21 02:15:59;;;;;;;;;;;;;;;22.76;50.60;100854.53;5056223;28;4189;-70
2022/06/21 02:18:26;;;;;;;;;;;;;;;22.75;50.45;100858.09;5051019;28;4073;-70
2022/06/21 02:20:53;;;;;;;;;;;;;;;22.75;50.73;100858.09;5046502;28;4165;-69
2022/06/21 02:23:22;;;;;;;;;;;;;;;22.74;50.16;100856.59;5056968;28;4177;-69
2022/06/21 02:25:49;;;;;;;;;;;;;;;22.76;50.79;100862.47;5055578;28;4336;-69
2022/06/21 02:28:15;;;;;;;;;;;;;;;22.75;50.46;100861.00;5057259;28;4244;-69
2022/06/21 02:30:42;;;;;;;;;;;;;;;22.74;50.77;100856.59;5057283;28;4250;-69
2022/06/21 02:33:09;;;;;;;;;;;;;;;22.73;50.65;100861.66;5046346;28;4323;-69
2022/06/21 02:35:39;;;;;;;;;;;;;;;22.74;51.00;100856.59;5051165;28;4217;-70
2022/06/21 02:38:06;;;;;;;;;;;;;;;22.73;50.87;100869.56;5057835;28;4371;-69
2022/06/21 02:40:33;;;;;;;;;;;;;;;22.73;50.85;100866.69;5051244;28;4220;-69
2022/06/21 02:43:01;;;;;;;;;;;;;;;22.74;50.81;100873.94;5049835;28;4164;-70
2022/06/21 02:45:32;;;;;;;;;;;;;;;22.72;50.94;100874.63;5053298;28;4188;-69
2022/06/21 02:48:03;;;;;;;;;;;;;;;22.72;50.47;100870.97;5048362;28;4258;-69
2022/06/21 02:50:50;;;;;;;;;;;;;;;22.71;50.93;100870.22;5055761;28;4283;-69
2022/06/21 02:53:22;;;;;;;;;;;;;;;22.71;50.51;100869.50;5053219;28;4151;-69
2022/06/21 02:55:51;;;;;;;;;;;;;;;22.71;50.71;100869.50;5053314;28;4069;-69
2022/06/21 02:58:22;;;;;;;;;;;;;;;22.70;50.56;100873.78;5053061;28;4228;-70
2022/06/21 03:00:48;;;;;;;;;;;;;;;22.69;50.51;100864.38;5050521;28;5119;-69
2022/06/21 03:03:16;;;;;;;;;;;;;;;22.72;50.36;100870.97;5053774;28;4146;-69
2022/06/21 03:05:42;;;;;;;;;;;;;;;22.71;50.14;100873.13;5059362;28;4186;-69
2022/06/21 03:08:09;;;;;;;;;;;;;;;22.71;49.85;100864.44;5062907;28;4095;-69
2022/06/21 03:10:36;;;;;;;;;;;;;;;22.69;50.00;100864.38;5054611;28;4154;-69
2022/06/21 03:13:08;;;;;;;;;;;;;;;22.70;49.99;100857.22;5050436;28;4252;-69
2022/06/21 03:15:34;;;;;;;;;;;;;;;22.71;49.99;100864.44;5054244;28;4197;-70
2022/06/21 03:18:02;;;;;;;;;;;;;;;22.69;50.13;100872.31;5053050;28;4289;-70
2022/06/21 03:20:29;;;;;;;;;;;;;;;22.68;50.13;100865.06;5051555;28;5190;-70
2022/06/21 03:22:55;;;;;;;;;;;;;;;22.68;50.08;100865.06;5053644;28;4095;-69
2022/06/21 03:25:23;;;;;;;;;;;;;;;22.63;50.11;100869.19;5060437;28;4256;-70
2022/06/21 03:27:52;;;;;;;;;;;;;;;22.61;49.94;100872.75;5047345;28;4223;-70
2022/06/21 03:30:19;;;;;;;;;;;;;;;22.62;50.16;100874.22;5051863;28;5287;-70
2022/06/21 03:32:46;;;;;;;;;;;;;;;22.61;50.10;100878.53;5056549;28;4112;-69
2022/06/21 03:35:13;;;;;;;;;;;;;;;22.61;49.73;100878.53;5048803;28;4006;-66
2022/06/21 03:43:35;;;;;;;;;;;;;;;22.62;49.60;100879.25;5054583;28;4169;-66
2022/06/21 03:46:01;;;;;;;;;;;;;;;22.62;49.83;100882.16;5050524;28;4589;-66
2022/06/21 03:48:33;;;;;;;;;;;;;;;22.61;49.72;100890.06;5052141;28;4312;-67
2022/06/21 03:51:01;;;;;;;;;;;;;;;22.57;49.84;100884.88;5055439;28;4184;-66
2022/06/21 03:53:32;;;;;;;;;;;;;;;22.56;49.79;100883.41;5049296;28;4767;-66
2022/06/21 03:56:04;;;;;;;;;;;;;;;22.57;49.57;100890.66;5051441;28;4304;-68
2022/06/21 03:58:33;;;;;;;;;;;;;;;22.58;49.76;100892.13;5051161;28;4181;-66
2022/06/21 04:01:10;;;;;;;;;;;;;;;22.56;49.81;100889.19;5054803;28;4059;-66
2022/06/21 04:03:44;;;;;;;;;;;;;;;22.56;49.52;100900.72;5058845;28;4122;-66
2022/06/21 04:06:20;;;;;;;;;;;;;;;22.49;49.40;100890.31;5047495;28;4222;-67
2022/06/21 04:08:47;;;;;;;;;;;;;;;22.36;49.86;100906.44;5046154;28;3971;-66
2022/06/21 04:11:14;;;;;;;;;;;;;;;22.11;50.03;100898.94;5049705;28;4122;-67
2022/06/21 04:14:01;;;;;;;;;;;;;;;22.10;49.83;100908.97;5051693;28;4369;-67
2022/06/21 04:16:30;;;;;;;;;;;;;;;22.27;49.39;100915.44;5041646;28;4038;-65
2022/06/21 04:19:15;;;;;;;;;;;;;;;22.25;49.43;100912.47;5053315;28;4082;-67
2022/06/21 04:21:46;;;;;;;;;;;;;;;22.26;49.54;100928.38;5051950;28;4476;-66
2022/06/21 04:24:17;;;;;;;;;;;;;;;22.07;49.51;100918.97;5049847;28;4356;-66
2022/06/21 04:26:46;;;;;;;;;;;;;;;21.86;49.73;100922.44;5045912;28;4121;-67
2022/06/21 04:29:18;;;;;;;;;;;;;;;21.95;49.88;100927.13;5048457;28;4189;-66
2022/06/21 04:32:02;;;;;;;;;;;;;;;21.78;49.63;100925.69;5050938;28;4133;-66
2022/06/21 04:34:28;;;;;;;;;;;;;;;21.99;49.33;100926.53;5063703;28;4188;-67
2022/06/21 04:36:57;;;;;;;;;;;;;;;21.68;49.73;100928.91;5048482;28;4714;-67
2022/06/21 04:39:25;;;;;;;;;;;;;;;21.75;49.50;100930.66;5050699;28;4047;-67
2022/06/21 04:41:53;;;;;;;;;;;;;;;21.78;49.54;100937.22;5052705;28;4202;-66
2022/06/21 04:44:20;;;;;;;;;;;;;;;21.98;49.42;100936.59;5047950;28;4256;-66
2022/06/21 04:46:47;;;;;;;;;;;;;;;21.93;48.96;100950.09;5053455;28;4126;-66
2022/06/21 04:49:21;;;;;;;;;;;;;;;21.50;48.99;100936.78;5036490;28;4191;-65
2022/06/21 04:51:55;;;;;;;;;;;;;;;21.61;49.05;100932.94;5045635;28;4067;-65
2022/06/21 04:54:25;;;;;;;;;;;;;;;21.70;49.02;100931.88;5046330;28;4972;-65
2022/06/21 04:56:54;;;;;;;;;;;;;;;21.84;49.13;100939.66;5050211;28;4318;-66
2022/06/21 04:59:24;;;;;;;;;;;;;;;21.92;48.82;100948.63;5050458;28;4214;-64
2022/06/21 05:01:50;;;;;;;;;;;;;;;21.96;48.74;100951.66;5049513;28;4223;-64
2022/06/21 05:04:18;;;;;;;;;;;;;;;21.98;49.02;100963.28;5055012;28;3985;-64
2022/06/21 05:06:44;;;;;;;;;;;;;;;21.93;48.86;100967.41;5048971;28;5486;-64
2022/06/21 05:09:12;;;;;;;;;;;;;;;21.93;49.16;100961.66;5046752;28;4222;-64
2022/06/21 05:11:38;;;;;;;;;;;;;;;21.92;49.35;100960.16;5050191;28;4082;-63
2022/06/21 05:14:05;;;;;;;;;;;;;;;22.07;50.13;100956.47;5052419;28;4305;-62
2022/06/21 05:16:33;;;;;;;;;;;;;;;22.15;49.79;100968.34;5060352;28;4219;-62
2022/06/21 05:19:12;;;;;;;;;;;;;;;22.17;50.08;100971.31;5055870;28;5278;-65
2022/06/21 05:21:39;;;;;;;;;;;;;;;22.19;50.15;100973.50;5054690;28;5488;-62
2022/06/21 05:24:06;;;;;;;;;;;;;;;22.26;49.74;100968.75;5056855;28;5683;-62
2022/06/21 05:27:05;;;;;;;;;;;;;;;22.28;49.81;100969.56;5058482;28;4250;-60
2022/06/21 05:29:35;;;;;;;;;;;;;;;22.30;49.72;100968.94;5021796;28;4043;-60
2022/06/21 05:32:02;;;;;;;;;;;;;;;22.26;49.64;100971.66;5054864;28;4356;-62
2022/06/21 05:34:29;;;;;;;;;;;;;;;22.27;49.61;100970.25;5046348;28;5531;-62
2022/06/21 05:37:00;;;;;;;;;;;;;;;22.32;49.78;100971.91;5061674;28;3959;-62
2022/06/21 05:39:30;;;;;;;;;;;;;;;22.33;49.72;100982.03;5054552;28;4085;-61
2022/06/21 05:41:56;;;;;;;;;;;;;;;22.35;49.48;100976.34;5060187;28;4062;-62
2022/06/21 05:44:31;;;;;;;;;;;;;;;22.33;49.71;100973.38;5056182;28;4076;-64
2022/06/21 05:47:11;;;;;;;;;;;;;;;22.30;49.63;100977.59;5053936;28;4342;-61
2022/06/21 05:49:38;;;;;;;;;;;;;;;22.31;49.64;100979.81;5058332;28;4696;-61
2022/06/21 05:52:05;;;;;;;;;;;;;;;22.30;48.76;100977.59;5056834;28;4564;-63
2022/06/21 05:54:33;;;;;;;;;;;;;;;22.23;49.08;100973.72;5054068;28;4534;-61
2022/06/21 05:56:59;;;;;;;;;;;;;;;22.28;49.02;100983.28;5053134;28;4162;-62
2022/06/21 05:59:26;;;;;;;;;;;;;;;22.19;49.32;100979.28;5056057;28;4620;-62
2022/06/21 06:02:09;;;;;;;;;;;;;;;22.23;49.39;100984.50;5051458;28;4502;-62
2022/06/21 06:04:55;;;;;;;;;;;;;;;22.30;48.98;100998.50;5054072;28;4106;-62
2022/06/21 06:07:27;;;;;;;;;;;;;;;22.29;49.03;100997.03;5056053;28;4623;-61
2022/06/21 06:09:56;;;;;;;;;;;;;;;22.31;48.80;101002.91;5054689;28;4525;-62
2022/06/21 06:12:23;;;;;;;;;;;;;;;22.30;48.72;101000.66;5056838;28;4548;-61
2022/06/21 06:15:02;;;;;;;;;;;;;;;22.37;48.36;100993.72;5054751;28;4133;-61
2022/06/21 06:17:29;;;;;;;;;;;;;;;22.43;48.22;100993.97;5052656;28;4739;-60
2022/06/21 06:19:58;;;;;;;;;;;;;;;22.42;48.04;100992.47;5055445;28;4277;-61
2022/06/21 06:22:27;;;;;;;;;;;;;;;22.37;48.36;100982.19;5051392;28;5933;-59
2022/06/21 06:24:57;;;;;;;;;;;;;;;22.42;48.25;100974.44;5053633;28;4575;-58
2022/06/21 06:27:25;;;;;;;;;;;;;;;22.41;48.35;100982.38;5058316;28;4177;-60
2022/06/21 06:29:51;;;;;;;;;;;;;;;22.44;48.40;100975.25;5042225;28;4103;-60
2022/06/21 06:32:20;;;;;;;;;;;;;;;22.44;48.45;100980.28;5049424;28;4224;-60
2022/06/21 06:34:48;;;;;;;;;;;;;;;22.44;48.13;100975.25;5049105;28;4065;-60
2022/06/21 06:37:22;;;;;;;;;;;;;;;22.46;48.44;100977.50;5054663;28;5647;-59
2022/06/21 06:39:48;;;;;;;;;;;;;;;22.43;48.38;100970.91;5054653;28;4193;-60
2022/06/21 06:42:15;;;;;;;;;;;;;;;22.46;47.99;100971.72;5053235;28;4631;-59
2022/06/21 06:44:43;;;;;;;;;;;;;;;22.46;47.90;100984.00;5053897;28;4088;-60
2022/06/21 06:47:13;;;;;;;;;;;;;;;22.33;48.15;100967.59;5050649;28;5920;-61
2022/06/21 06:49:44;;;;;;;;;;;;;;;22.28;48.19;100974.63;5052634;28;4523;-63
2022/06/21 06:52:11;;;;;;;;;;;;;;;22.34;48.10;100977.75;5054754;28;4169;-63
2022/06/21 06:54:39;;;;;;;;;;;;;;;22.42;47.98;100977.31;5058004;28;4150;-63
2022/06/21 06:57:11;;;;;;;;;;;;;;;22.50;47.87;100981.28;5053814;28;4272;-65
2022/06/21 06:59:38;;;;;;;;;;;;;;;22.26;48.18;100986.81;5041642;28;4415;-59
2022/06/21 07:02:09;;;;;;;;;;;;;;;22.40;48.32;100986.63;5048108;28;4037;-60
2022/06/21 07:04:36;;;;;;;;;;;;;;;22.38;48.06;100983.69;5050524;28;4375;-62
2022/06/21 07:07:06;;;;;;;;;;;;;;;22.29;48.32;100994.16;5052169;28;4172;-66
2022/06/21 07:09:36;;;;;;;;;;;;;;;22.30;48.45;100983.34;5048812;28;4156;-62
2022/06/21 07:12:17;;;;;;;;;;;;;;;22.23;48.59;100987.41;5043907;28;4059;-69
2022/06/21 07:14:43;;;;;;;;;;;;;;;22.21;48.86;100975.75;5053336;28;4163;-70
2022/06/21 07:17:17;;;;;;;;;;;;;;;22.21;48.96;100969.97;5049842;28;4142;-70
2022/06/21 07:19:43;;;;;;;;;;;;;;;22.22;48.96;100971.47;5050707;28;4075;-69
2022/06/21 07:22:12;;;;;;;;;;;;;;;22.21;49.08;100981.50;5052300;28;4155;-64
2022/06/21 07:24:39;;;;;;;;;;;;;;;22.24;48.95;100968.69;5049928;28;4243;-64
2022/06/21 07:27:05;;;;;;;;;;;;;;;22.24;48.83;100968.69;5050899;28;5293;-65
2022/06/21 07:29:39;;;;;;;;;;;;;;;22.26;48.93;100975.25;5048601;28;4246;-63
2022/06/21 07:32:09;;;;;;;;;;;;;;;22.27;48.87;100968.09;5032944;28;5224;-62
2022/06/21 07:34:42;;;;;;;;;;;;;;;22.28;48.91;100963.81;5033735;28;4109;-62
2022/06/21 07:37:23;;;;;;;;;;;;;;;22.28;49.12;100974.63;5027742;28;4431;-61
2022/06/21 07:39:50;;;;;;;;;;;;;;;22.28;49.06;100963.81;5028626;28;4221;-62
2022/06/21 07:42:21;;;;;;;;;;;;;;;22.29;49.08;100964.56;5033575;28;4218;-61
2022/06/21 07:44:57;;;;;;;;;;;;;;;22.31;49.04;100967.50;5030333;28;4246;-61
2022/06/21 07:47:25;;;;;;;;;;;;;;;22.30;49.22;100955.25;5033299;28;4517;-62
2022/06/21 07:49:52;;;;;;;;;;;;;;;22.31;49.05;100961.75;5032630;28;4931;-62
2022/06/21 07:52:25;;;;;;;;;;;;;;;22.31;49.18;100962.50;5034795;28;4121;-62
2022/06/21 07:54:55;;;;;;;;;;;;;;;22.31;49.22;100967.50;5035898;28;4210;-62
2022/06/21 07:57:31;;;;;;;;;;;;;;;22.30;49.09;100966.78;5031484;28;5514;-63
2022/06/21 07:59:59;;;;;;;;;;;;;;;22.31;49.15;100961.75;5033285;28;4084;-61
2022/06/21 08:08:12;;;;;;;;;;;;;;;22.29;49.21;100976.13;5053686;28;4111;-67
2022/06/21 08:10:40;;;;;;;;;;;;;;;22.29;49.27;100973.22;5041101;28;4208;-67
2022/06/21 08:13:06;;;;;;;;;;;;;;;22.30;49.39;100971.81;5045709;28;4428;-67
2022/06/21 08:15:37;;;;;;;;;;;;;;;22.32;49.24;100977.66;5049672;28;5330;-67
2022/06/21 08:18:03;;;;;;;;;;;;;;;22.31;49.22;100979.81;5052407;28;4106;-63
2022/06/21 08:20:38;;;;;;;;;;;;;;;22.30;49.33;100977.59;5049165;28;4492;-63
2022/06/21 08:23:06;;;;;;;;;;;;;;;22.28;49.27;100975.34;5051392;28;4166;-63
2022/06/21 08:25:32;;;;;;;;;;;;;;;22.28;49.35;100968.84;5050467;28;4247;-63
2022/06/21 08:28:07;;;;;;;;;;;;;;;22.28;49.61;100965.97;5054197;28;5263;-63
2022/06/21 08:30:54;;;;;;;;;;;;;;;22.27;49.60;100967.38;5049446;28;4087;-61
2022/06/21 08:33:25;;;;;;;;;;;;;;;22.27;49.78;100967.38;5049252;28;4172;-61
2022/06/21 08:36:00;;;;;;;;;;;;;;;22.25;49.72;100973.78;5054146;28;4055;-67
2022/06/21 08:38:31;;;;;;;;;;;;;;;22.25;49.51;100958.63;5052138;28;4114;-67
2022/06/21 08:41:08;;;;;;;;;;;;;;;22.25;49.50;100970.19;5047338;28;4976;-69
2022/06/21 08:43:54;;;;;;;;;;;;;;;22.24;49.79;100963.66;5052130;28;4142;-69
2022/06/21 08:46:20;;;;;;;;;;;;;;;22.24;49.83;100963.66;5050673;28;4139;-63
2022/06/21 08:48:54;;;;;;;;;;;;;;;22.25;49.64;100958.63;5045475;28;4113;-63
2022/06/21 08:51:30;;;;;;;;;;;;;;;22.24;49.73;100957.91;5051077;28;4266;-63
2022/06/21 08:54:13;;;;;;;;;;;;;;;22.24;49.95;100960.78;5053366;28;4196;-61
2022/06/21 08:56:46;;;;;;;;;;;;;;;22.25;49.86;100953.59;5051876;28;4591;-63
2022/06/21 08:59:15;;;;;;;;;;;;;;;22.25;49.70;100964.41;5048054;28;4523;-61
2022/06/21 09:02:01;;;;;;;;;;;;;;;22.25;49.66;100964.41;5051992;28;4527;-61
2022/06/21 09:04:47;;;;;;;;;;;;;;;22.25;49.85;100965.13;5047853;28;4567;-61
2022/06/21 09:07:27;;;;;;;;;;;;;;;22.26;49.82;100954.34;5038601;28;4549;-60
2022/06/21 09:09:56;;;;;;;;;;;;;;;22.26;49.36;100963.72;5045439;28;4610;-60
2022/06/21 09:12:32;;;;;;;;;;;;;;;22.27;49.33;100961.59;5061075;28;4236;-62
2022/06/21 09:15:17;;;;;;;;;;;;;;;22.44;49.01;100969.47;5045621;28;4225;-67
2022/06/21 09:17:51;;;;;;;;;;;;;;;22.45;49.24;100968.09;5048937;28;4234;-63
2022/06/21 09:20:25;;;;;;;;;;;;;;;22.58;49.00;100955.59;5038992;28;4169;-66
2022/06/21 09:23:20;;;;;;;;;;;;;;;22.69;48.92;100961.78;5047363;28;4238;-65
2022/06/21 09:25:49;;;;;;;;;;;;;;;22.75;48.76;100965.66;5045493;28;4387;-59
2022/06/21 09:28:37;;;;;;;;;;;;;;;22.75;49.02;100964.91;5049209;28;4301;-69
2022/06/21 09:31:04;;;;;;;;;;;;;;;22.75;49.02;100967.81;5042389;28;4192;-67
2022/06/21 09:33:35;;;;;;;;;;;;;;;22.78;49.33;100955.66;5019524;28;4026;-66
2022/06/21 09:36:18;;;;;;;;;;;;;;;22.82;49.27;100963.72;5050512;28;4306;-66
2022/06/21 09:38:47;;;;;;;;;;;;;;;22.77;49.17;100962.09;5049993;28;4784;-61
2022/06/21 09:41:28;;;;;;;;;;;;;;;22.78;49.25;100963.56;5051904;28;4149;-60
2022/06/21 09:43:55;;;;;;;;;;;;;;;22.67;49.39;100962.44;5050773;28;4397;-59
2022/06/21 09:46:25;;;;;;;;;;;;;;;22.82;48.44;100949.31;5054384;28;5139;-60
2022/06/21 09:48:55;;;;;;;;;;;;;;;22.96;48.16;100958.50;5044597;28;4245;-60
2022/06/21 09:51:29;;;;;;;;;;;;;;;23.03;48.02;100961.63;5054391;28;5193;-61
2022/06/21 09:54:00;;;;;;;;;;;;;;;23.10;47.93;100966.22;5053351;28;5260;-61
2022/06/21 09:56:30;;;;;;;;;;;;;;;23.11;47.95;100956.91;5060977;28;4276;-60
2022/06/21 09:59:07;;;;;;;;;;;;;;;23.09;48.45;100953.19;5051209;28;4241;-61
2022/06/21 10:01:54;;;;;;;;;;;;;;;23.08;48.35;100957.50;5053320;28;4384;-60
2022/06/21 10:04:28;;;;;;;;;;;;;;;23.22;48.13;100955.09;5054063;28;5401;-59
2022/06/21 10:07:03;;;;;;;;;;;;;;;23.19;48.42;100968.75;5059530;28;4549;-59
2022/06/21 10:09:51;;;;;;;;;;;;;;;23.19;48.23;100957.19;5055937;28;4234;-57
2022/06/21 10:12:17;;;;;;;;;;;;;;;23.21;48.47;100953.63;5055732;28;4511;-59
2022/06/21 10:14:46;;;;;;;;;;;;;;;23.27;48.34;100962.50;5056899;28;4238;-58
2022/06/21 10:17:30;;;;;;;;;;;;;;;23.24;48.29;100958.06;5055197;28;4177;-58
2022/06/21 10:19:59;;;;;;;;;;;;;;;23.23;48.10;100953.72;5054944;28;4070;-60
2022/06/21 10:22:31;;;;;;;;;;;;;;;23.00;48.28;100960.81;5052649;28;5494;-58
2022/06/21 10:25:15;;;;;;;;;;;;;;;22.89;48.96;100965.44;5057944;28;5537;-59
2022/06/21 10:28:01;;;;;;;;;;;;;;;22.85;48.79;100958.78;5056927;28;4141;-59
2022/06/21 10:30:30;;;;;;;;;;;;;;;22.63;46.36;100955.78;5050338;28;4261;-62
2022/06/21 10:33:15;;;;;;;;;;;;;;;22.62;45.11;100960.06;5050375;28;4263;-62
2022/06/21 10:35:44;;;;;;;;;;;;;;;22.54;44.10;100963.38;5057775;28;4156;-62
2022/06/21 10:38:13;;;;;;;;;;;;;;;22.56;43.93;100958.44;5055558;28;4217;-62
2022/06/21 10:40:58;;;;;;;;;;;;;;;22.54;43.69;100955.47;5056979;28;4244;-63
2022/06/21 10:43:45;;;;;;;;;;;;;;;22.52;44.02;100964.03;5050261;28;5264;-59
2022/06/21 10:46:17;;;;;;;;;;;;;;;22.82;43.33;100960.84;5051952;28;4333;-58
2022/06/21 10:49:00;;;;;;;;;;;;;;;23.13;43.11;100959.09;5054911;28;4262;-58
2022/06/21 10:51:45;;;;;;;;;;;;;;;23.10;42.83;100966.22;5051540;28;5427;-59
2022/06/21 10:54:26;;;;;;;;;;;;;;;23.08;42.25;100971.94;5056751;28;5085;-59
2022/06/21 10:57:11;;;;;;;;;;;;;;;23.14;42.18;100961.34;5052220;28;5589;-59
2022/06/21 11:03:15;;;;;;;;;;;;;;;23.22;41.96;100958.00;5051287;28;5249;-58
2022/06/21 11:06:00;;;;;;;;;;;;;;;23.34;42.36;100955.56;5056261;28;4161;-59
2022/06/21 11:08:45;;;;;;;;;;;;;;;23.18;42.60;100960.72;5051678;28;5360;-59
2022/06/21 11:11:17;;;;;;;;;;;;;;;23.04;40.83;100957.34;5053614;28;4287;-58
2022/06/21 11:13:46;;;;;;;;;;;;;;;23.14;41.49;100960.59;5064273;28;4216;-58
2022/06/21 11:16:14;;;;;;;;;;;;;;;23.25;42.08;100959.56;5057667;28;4219;-58
2022/06/21 11:18:55;;;;;;;;;;;;;;;23.24;41.79;100952.28;5053485;28;4095;-58
2022/06/21 11:21:40;;;;;;;;;;;;;;;23.24;42.16;100952.28;5052661;28;4231;-59
2022/06/21 11:24:11;;;;;;;;;;;;;;;23.28;42.60;100952.44;5051121;28;5330;-57
2022/06/21 11:26:44;;;;;;;;;;;;;;;23.31;44.32;100951.09;5056525;28;5261;-57
2022/06/21 11:29:16;;;;;;;;;;;;;;;23.24;43.41;100949.41;5053442;28;4399;-59
2022/06/21 11:31:47;;;;;;;;;;;;;;;23.16;42.05;100949.88;5054283;28;4261;-59
2022/06/21 11:34:20;;;;;;;;;;;;;;;23.22;43.13;100952.22;5050836;28;4270;-59
2022/06/21 11:37:09;;;;;;;;;;;;;;;23.23;41.35;100947.94;5054546;28;4132;-58
2022/06/21 11:39:36;;;;;;;;;;;;;;;23.20;41.80;100952.13;5044173;28;5174;-59
2022/06/21 11:42:12;;;;;;;;;;;;;;;23.24;41.73;100945.78;5050924;28;4279;-59
2022/06/21 11:44:45;;;;;;;;;;;;;;;23.31;42.58;100945.31;5054454;28;4030;-59
2022/06/21 11:47:12;;;;;;;;;;;;;;;23.45;43.12;100941.47;5051699;28;4268;-58
2022/06/21 11:49:40;;;;;;;;;;;;;;;23.37;41.39;100960.00;5054729;28;4239;-59
2022/06/21 11:52:28;;;;;;;;;;;;;;;23.30;40.64;100929.41;5052910;28;5177;-58
2022/06/21 11:55:15;;;;;;;;;;;;;;;23.41;41.93;100939.91;5054087;28;4140;-59
2022/06/21 11:57:44;;;;;;;;;;;;;;;23.45;42.11;100944.34;5052320;28;4379;-58
2022/06/21 12:00:10;;;;;;;;;;;;;;;23.45;42.41;100944.34;5045204;28;4083;-58
2022/06/21 12:02:56;;;;;;;;;;;;;;;23.44;43.44;100940.72;5053215;28;4245;-58
2022/06/21 12:05:31;;;;;;;;;;;;;;;23.48;43.58;100946.66;5056197;28;4205;-59
2022/06/21 12:08:02;;;;;;;;;;;;;;;23.59;41.48;100941.94;5051298;28;4180;-59
2022/06/21 12:10:37;;;;;;;;;;;;;;;23.81;43.65;100933.31;5053157;28;4185;-59
2022/06/21 12:13:17;;;;;;;;;;;;;;;23.93;43.78;100933.72;5051429;28;4949;-59
2022/06/21 12:15:44;;;;;;;;;;;;;;;23.75;41.42;100941.78;5052975;28;4176;-59
2022/06/21 12:18:11;;;;;;;;;;;;;;;23.69;43.42;100930.00;5047885;28;5286;-60
2022/06/21 12:20:40;;;;;;;;;;;;;;;23.67;44.76;100927.78;5049339;28;5252;-61
2022/06/21 12:23:09;;;;;;;;;;;;;;;23.59;45.21;100924.59;5055075;28;4233;-62
2022/06/21 12:25:36;;;;;;;;;;;;;;;23.43;45.80;100921.88;5061242;28;4427;-60
2022/06/21 12:28:04;;;;;;;;;;;;;;;23.46;45.32;100943.69;5052904;28;4127;-61
2022/06/21 12:30:51;;;;;;;;;;;;;;;23.53;42.79;100930.19;5045202;28;4070;-63
2022/06/21 12:33:18;;;;;;;;;;;;;;;23.65;42.17;100924.81;5046830;28;4021;-60
2022/06/21 12:35:47;;;;;;;;;;;;;;;24.17;40.41;100930.88;5050314;28;4089;-62
2022/06/21 12:38:15;;;;;;;;;;;;;;;24.59;41.22;100933.63;5050975;28;4724;-62
2022/06/21 12:40:45;;;;;;;;;;;;;;;24.64;40.51;100922.91;5058208;28;4493;-63
2022/06/21 12:43:25;;;;;;;;;;;;;;;24.69;41.62;100926.66;5053845;28;4212;-64
2022/06/21 12:45:54;;;;;;;;;;;;;;;24.48;39.66;100917.38;5053757;28;3980;-60
2022/06/21 12:48:29;;;;;;;;;;;;;;;24.16;38.97;100923.59;5059015;28;4371;-61
2022/06/21 12:51:11;;;;;;;;;;;;;;;24.16;38.91;100920.72;5054976;28;4618;-60
2022/06/21 12:53:43;;;;;;;;;;;;;;;24.31;38.66;100918.28;5054284;28;4180;-60
2022/06/21 12:56:12;;;;;;;;;;;;;;;24.28;38.68;100905.16;5055629;28;4344;-62
2022/06/21 12:58:51;;;;;;;;;;;;;;;24.39;39.81;100909.84;5050362;28;4405;-63
2022/06/21 13:01:18;;;;;;;;;;;;;;;24.36;40.11;100902.50;5052285;28;4353;-60
2022/06/21 13:03:45;;;;;;;;;;;;;;;24.43;40.40;100902.00;5047970;28;4219;-61
2022/06/21 13:06:18;;;;;;;;;;;;;;;24.82;41.26;100902.44;5051357;28;4953;-61
2022/06/21 13:08:49;;;;;;;;;;;;;;;25.06;41.32;100899.50;5046757;28;4343;-61
2022/06/21 13:11:31;;;;;;;;;;;;;;;24.88;41.70;100891.78;5052224;28;4155;-62
2022/06/21 13:14:13;;;;;;;;;;;;;;;24.76;41.69;100893.56;5053363;28;4268;-59
2022/06/21 13:16:39;;;;;;;;;;;;;;;24.71;40.95;100915.16;5052180;28;4175;-58
2022/06/21 13:19:10;;;;;;;;;;;;;;;24.65;40.85;100901.97;5050944;28;5146;-62
2022/06/21 13:21:42;;;;;;;;;;;;;;;24.55;40.20;100898.75;5052492;28;4179;-61
2022/06/21 13:24:15;;;;;;;;;;;;;;;24.53;40.82;100895.81;5052568;28;5141;-62